CheckWX is a tool to help pilots better visualize weather data.  It is not intended as a substitute for an official pre-flight weather briefing.

01:45:39 UTC

LIPQ TAF
Trieste–Friuli Venezia Giulia Airport
Trieste, Italy
TAF LIPQ 232300Z 2400/2424 VRB06KT CAVOK

Feb-24@
00:00 UTC

Feb-24 @ 00:00 UTC

Feb-25@
00:00 UTC

Feb-25 @ 00:00 UTC

TAF LIPQ 232300Z 2400/2424 VRB06KT CAVOK
Wind
  • Variable at 6 KTS
Conditions
No significant weather
Cloud Levels
  • No significant clouds